createdAt,value
2022-12-18T00:00:08.230Z,-5.89
2022-12-18T00:02:35.296Z,-5.80
2022-12-18T00:05:02.217Z,-5.81
2022-12-18T00:07:29.062Z,-5.82
2022-12-18T00:09:56.008Z,-5.87
2022-12-18T00:12:22.759Z,-5.93
2022-12-18T00:14:52.025Z,-5.90
2022-12-18T00:17:18.904Z,-5.90
2022-12-18T00:19:48.579Z,-5.92
2022-12-18T00:22:15.333Z,-5.95
2022-12-18T00:24:42.083Z,-5.93
2022-12-18T00:27:11.620Z,-5.87
2022-12-18T00:29:38.337Z,-5.82
2022-12-18T00:32:05.217Z,-5.89
2022-12-18T00:34:31.913Z,-5.92
2022-12-18T00:36:58.760Z,-5.89
2022-12-18T00:39:25.591Z,-6.00
2022-12-18T00:42:10.816Z,-6.05
2022-12-18T00:44:40.710Z,-6.15
2022-12-18T00:47:07.534Z,-6.14
2022-12-18T00:49:34.475Z,-6.19
2022-12-18T00:52:01.316Z,-6.21
2022-12-18T00:54:28.626Z,-6.28
2022-12-18T00:56:57.639Z,-6.20
2022-12-18T00:59:24.309Z,-6.15
2022-12-18T01:01:51.108Z,-6.13
2022-12-18T01:04:17.980Z,-6.17
2022-12-18T01:06:47.376Z,-6.17
2022-12-18T01:09:17.414Z,-6.07
2022-12-18T01:11:44.115Z,-6.14
2022-12-18T01:14:11.004Z,-6.16
2022-12-18T01:16:37.809Z,-6.10
2022-12-18T01:19:04.557Z,-6.09
2022-12-18T01:21:31.551Z,-6.05
2022-12-18T01:23:58.652Z,-6.03
2022-12-18T01:26:26.844Z,-6.08
2022-12-18T01:28:57.594Z,-6.16
2022-12-18T01:31:34.674Z,-6.08
2022-12-18T01:34:05.024Z,-6.08
2022-12-18T01:36:39.921Z,-5.99
2022-12-18T01:39:25.402Z,-6.08
2022-12-18T01:42:04.023Z,-6.15
2022-12-18T01:45:14.721Z,-6.10
2022-12-18T01:48:10.206Z,-6.07
2022-12-18T01:50:45.995Z,-6.16
2022-12-18T01:53:21.785Z,-6.13
2022-12-18T01:55:56.041Z,-6.10
2022-12-18T01:58:50.448Z,-6.18
2022-12-18T02:01:18.090Z,-6.17
2022-12-18T02:03:48.894Z,-6.23
2022-12-18T02:06:38.858Z,-6.29
2022-12-18T02:09:49.187Z,-6.13
2022-12-18T02:12:43.428Z,-6.12
2022-12-18T02:15:47.208Z,-6.17
2022-12-18T02:18:32.645Z,-6.14
2022-12-18T02:21:56.604Z,-6.22
2022-12-18T02:24:56.958Z,-6.19
2022-12-18T02:27:24.281Z,-6.36
2022-12-18T02:29:59.614Z,-6.43
2022-12-18T02:32:42.570Z,-6.33
2022-12-18T02:35:22.173Z,-6.37
2022-12-18T02:37:55.695Z,-6.37
2022-12-18T02:40:28.552Z,-6.34
2022-12-18T02:42:56.341Z,-6.37
2022-12-18T02:45:23.147Z,-6.38
2022-12-18T02:47:51.705Z,-6.31
2022-12-18T02:51:13.749Z,-6.42
2022-12-18T02:53:59.673Z,-6.39
2022-12-18T02:56:49.679Z,-6.33
2022-12-18T02:59:38.434Z,-6.39
2022-12-18T03:02:24.817Z,-6.36
2022-12-18T03:05:11.950Z,-6.27
2022-12-18T03:08:25.194Z,-6.32
2022-12-18T03:11:09.531Z,-6.24
2022-12-18T03:13:59.431Z,-6.26
2022-12-18T03:16:33.252Z,-6.25
2022-12-18T03:19:21.176Z,-6.19
2022-12-18T03:21:56.083Z,-6.24
2022-12-18T03:24:29.901Z,-6.03
2022-12-18T03:27:07.636Z,-6.12
2022-12-18T03:29:53.452Z,-6.18
2022-12-18T03:32:43.586Z,-6.14
2022-12-18T03:35:18.277Z,-6.14
2022-12-18T03:37:45.255Z,-6.09
2022-12-18T03:40:12.924Z,-6.17
2022-12-18T03:43:12.744Z,-6.22
2022-12-18T03:45:54.163Z,-6.16
2022-12-18T03:48:47.434Z,-6.19
2022-12-18T03:51:48.537Z,-6.16
2022-12-18T03:54:18.112Z,-6.19
2022-12-18T03:57:01.740Z,-6.29
2022-12-18T03:59:31.812Z,-6.23
2022-12-18T04:02:05.053Z,-6.25
2022-12-18T04:04:36.501Z,-6.38
2022-12-18T04:07:05.592Z,-6.43
2022-12-18T04:09:41.636Z,-6.51
2022-12-18T04:12:10.181Z,-6.53
2022-12-18T04:14:37.046Z,-6.47
2022-12-18T04:17:04.867Z,-6.49
2022-12-18T04:19:31.856Z,-6.43
2022-12-18T04:21:58.884Z,-6.39
2022-12-18T04:24:25.710Z,-6.47
2022-12-18T04:26:52.892Z,-6.51
2022-12-18T04:29:19.686Z,-6.50
2022-12-18T04:31:49.755Z,-6.52
2022-12-18T04:34:16.702Z,-6.62
2022-12-18T04:36:43.517Z,-6.62
2022-12-18T04:39:10.764Z,-6.66
2022-12-18T04:41:37.536Z,-6.72
2022-12-18T04:44:05.377Z,-6.78
2022-12-18T04:46:36.446Z,-6.79
2022-12-18T04:49:03.433Z,-6.87
2022-12-18T04:51:30.379Z,-6.91
2022-12-18T04:53:57.471Z,-6.96
2022-12-18T04:56:24.857Z,-6.89
2022-12-18T04:58:51.593Z,-6.92
2022-12-18T05:01:19.804Z,-6.84
2022-12-18T05:03:49.901Z,-6.88
2022-12-18T05:06:16.837Z,-6.91
2022-12-18T05:08:43.572Z,-6.92
2022-12-18T05:11:16.659Z,-6.87
2022-12-18T05:13:48.453Z,-6.89
2022-12-18T05:16:15.843Z,-6.91
2022-12-18T05:18:43.244Z,-6.94
2022-12-18T05:21:13.309Z,-6.94
2022-12-18T05:23:40.461Z,-6.93
2022-12-18T05:26:08.898Z,-7.01
2022-12-18T05:28:37.598Z,-7.09
2022-12-18T05:31:06.537Z,-7.04
2022-12-18T05:33:36.374Z,-7.02
2022-12-18T05:36:09.885Z,-7.07
2022-12-18T05:38:40.325Z,-7.07
2022-12-18T05:41:10.664Z,-7.17
2022-12-18T05:43:43.000Z,-7.12
2022-12-18T05:46:17.296Z,-7.18
2022-12-18T05:48:48.601Z,-7.11
2022-12-18T05:51:20.319Z,-7.15
2022-12-18T05:53:52.913Z,-7.15
2022-12-18T05:56:23.942Z,-7.18
2022-12-18T05:58:55.210Z,-7.13
2022-12-18T06:01:27.627Z,-7.12
2022-12-18T06:03:55.185Z,-7.19
2022-12-18T06:06:28.001Z,-7.21
2022-12-18T06:08:56.716Z,-7.20
2022-12-18T06:11:30.545Z,-7.30
2022-12-18T06:13:59.030Z,-7.33
2022-12-18T06:16:28.505Z,-7.30
2022-12-18T06:19:02.800Z,-7.33
2022-12-18T06:21:39.185Z,-7.31
2022-12-18T06:24:09.405Z,-7.34
2022-12-18T06:26:40.218Z,-7.29
2022-12-18T06:29:07.428Z,-7.35
2022-12-18T06:31:37.126Z,-7.40
2022-12-18T10:45:57.236Z,-4.41
2022-12-18T10:48:58.755Z,-4.33
2022-12-18T10:55:02.554Z,-4.38
2022-12-18T10:58:40.709Z,-4.43
2022-12-18T11:04:54.207Z,-4.43
2022-12-18T11:12:56.451Z,-4.35
2022-12-18T11:15:33.243Z,-4.22
2022-12-18T11:46:20.125Z,-4.40
2022-12-18T11:49:27.918Z,-4.44
2022-12-18T11:52:10.914Z,-4.42
2022-12-18T11:54:38.437Z,-4.37
2022-12-18T11:57:46.172Z,-4.34
2022-12-18T12:00:31.932Z,-4.41
2022-12-18T12:03:34.384Z,-4.32
2022-12-18T12:06:41.838Z,-4.38
2022-12-18T12:09:31.602Z,-4.28
2022-12-18T12:12:48.873Z,-4.24
2022-12-18T19:43:06.602Z,-4.84
2022-12-18T19:45:35.837Z,-4.79
2022-12-18T19:48:04.602Z,-4.83
2022-12-18T19:50:32.633Z,-4.82
2022-12-18T19:53:00.884Z,-4.74
2022-12-18T19:55:27.652Z,-4.72
2022-12-18T19:57:54.244Z,-4.72
2022-12-18T20:00:21.125Z,-4.67
2022-12-18T20:02:50.845Z,-4.69
2022-12-18T20:05:22.220Z,-4.66
2022-12-18T20:21:25.455Z,-4.58
2022-12-18T22:43:52.246Z,-3.94
2022-12-18T22:46:26.065Z,-3.88
2022-12-18T22:48:53.473Z,-3.88
2022-12-18T22:51:24.219Z,-3.88
2022-12-18T22:53:51.106Z,-3.83
2022-12-18T22:56:21.267Z,-3.79
2022-12-18T22:58:52.589Z,-3.84
2022-12-18T23:01:30.490Z,-3.88
2022-12-18T23:04:01.618Z,-3.93
2022-12-18T23:06:28.942Z,-3.91
2022-12-18T23:08:59.082Z,-3.91
2022-12-18T23:11:26.889Z,-3.88
2022-12-18T23:13:55.680Z,-3.93
2022-12-18T23:16:24.607Z,-3.95
2022-12-18T23:18:57.309Z,-4.03
2022-12-18T23:21:27.784Z,-4.05
2022-12-18T23:23:56.131Z,-4.04
2022-12-18T23:26:26.587Z,-4.06
2022-12-18T23:28:56.542Z,-4.00
2022-12-18T23:31:32.278Z,-3.97
2022-12-18T23:34:03.711Z,-3.94
2022-12-18T23:36:31.838Z,-3.93
2022-12-18T23:39:29.379Z,-3.93
2022-12-18T23:42:00.973Z,-3.98
2022-12-18T23:44:28.289Z,-3.91
2022-12-18T23:46:55.671Z,-4.02
2022-12-18T23:49:23.062Z,-3.93
2022-12-18T23:51:50.508Z,-4.05
2022-12-18T23:54:22.722Z,-4.04
2022-12-18T23:56:59.678Z,-4.06
2022-12-18T23:59:26.498Z,-4.03
